createdAt,value
2022-10-06T00:00:42.433Z,8.60
2022-10-06T00:01:42.441Z,12.20
2022-10-06T00:02:42.471Z,12.50
2022-10-06T00:03:42.386Z,11.80
2022-10-06T00:04:42.378Z,8.40
2022-10-06T00:05:42.378Z,11.30
2022-10-06T00:06:42.357Z,8.70
2022-10-06T00:07:42.347Z,14.00
2022-10-06T00:08:42.340Z,17.80
2022-10-06T00:09:42.331Z,9.40
2022-10-06T00:10:42.326Z,10.30
2022-10-06T00:11:42.299Z,18.10
2022-10-06T00:12:42.290Z,13.70
2022-10-06T00:13:42.286Z,13.50
2022-10-06T00:14:42.269Z,8.20
2022-10-06T00:15:42.299Z,8.10
2022-10-06T00:16:42.250Z,8.70
2022-10-06T00:17:42.241Z,11.10
2022-10-06T00:18:42.242Z,11.60
2022-10-06T00:19:42.222Z,11.30
2022-10-06T00:20:42.220Z,7.80
2022-10-06T00:21:42.199Z,9.70
2022-10-06T00:22:42.189Z,12.80
2022-10-06T00:23:42.176Z,12.50
2022-10-06T00:24:42.163Z,8.10
2022-10-06T00:25:42.164Z,7.80
2022-10-06T00:26:42.141Z,7.40
2022-10-06T00:27:42.136Z,10.50
2022-10-06T00:28:42.154Z,14.80
2022-10-06T00:29:42.113Z,9.50
2022-10-06T00:30:42.124Z,9.70
2022-10-06T00:31:42.098Z,15.00
2022-10-06T00:32:42.088Z,10.00
2022-10-06T00:33:42.086Z,13.40
2022-10-06T00:34:42.060Z,6.50
2022-10-06T00:35:42.067Z,7.40
2022-10-06T00:36:42.030Z,10.90
2022-10-06T00:37:42.028Z,12.80
2022-10-06T00:38:42.010Z,8.70
2022-10-06T00:39:42.010Z,11.20
2022-10-06T00:40:42.002Z,9.80
2022-10-06T00:41:41.981Z,7.40
2022-10-06T00:42:41.979Z,10.90
2022-10-06T00:43:41.971Z,6.90
2022-10-06T00:44:41.950Z,13.00
2022-10-06T00:45:41.951Z,12.50
2022-10-06T00:46:41.970Z,10.00
2022-10-06T00:47:41.922Z,11.70
2022-10-06T00:48:41.903Z,10.20
2022-10-06T00:49:41.904Z,6.50
2022-10-06T00:50:41.904Z,8.20
2022-10-06T00:51:41.884Z,8.40
2022-10-06T00:52:41.864Z,14.00
2022-10-06T00:53:41.854Z,7.50
2022-10-06T00:54:41.844Z,5.70
2022-10-06T00:55:41.855Z,12.50
2022-10-06T00:56:41.816Z,11.90
2022-10-06T00:57:41.817Z,16.70
2022-10-06T00:58:41.796Z,11.30
2022-10-06T00:59:41.788Z,13.70
2022-10-06T01:00:41.807Z,10.90
2022-10-06T01:01:41.805Z,8.90
2022-10-06T01:02:41.838Z,9.90
2022-10-06T01:03:41.748Z,10.90
2022-10-06T01:04:41.747Z,8.60
2022-10-06T01:05:41.731Z,8.40
2022-10-06T01:06:41.730Z,9.90
2022-10-06T01:07:41.720Z,9.90
2022-10-06T01:08:41.700Z,7.70
2022-10-06T01:09:41.681Z,6.00
2022-10-06T01:10:41.671Z,8.10
2022-10-06T01:11:41.672Z,9.90
2022-10-06T01:12:41.651Z,8.20
2022-10-06T01:13:41.652Z,9.20
2022-10-06T01:14:41.633Z,10.30
2022-10-06T01:15:41.658Z,7.10
2022-10-06T01:16:41.624Z,9.40
2022-10-06T01:17:41.602Z,12.70
2022-10-06T01:18:41.594Z,8.20
2022-10-06T01:19:41.576Z,10.00
2022-10-06T01:20:41.585Z,9.60
2022-10-06T01:21:41.565Z,6.00
2022-10-06T01:22:41.564Z,8.30
2022-10-06T01:23:41.536Z,5.00
2022-10-06T01:24:41.526Z,5.90
2022-10-06T01:25:41.514Z,3.00
2022-10-06T01:26:41.537Z,5.80
2022-10-06T01:27:41.497Z,3.40
2022-10-06T01:28:41.572Z,6.10
2022-10-06T01:29:41.468Z,7.90
2022-10-06T01:30:41.525Z,5.20
2022-10-06T01:31:41.475Z,4.40
2022-10-06T01:32:41.440Z,8.80
2022-10-06T01:33:41.430Z,4.40
2022-10-06T01:34:41.420Z,4.50
2022-10-06T01:35:41.430Z,2.00
2022-10-06T01:36:41.412Z,3.60
2022-10-06T01:37:41.393Z,5.00
2022-10-06T01:38:41.381Z,6.90
2022-10-06T01:39:41.369Z,4.60
2022-10-06T01:40:41.353Z,2.70
2022-10-06T01:41:41.353Z,2.80
2022-10-06T01:42:41.342Z,4.60
2022-10-06T01:43:41.322Z,4.20
2022-10-06T01:44:41.313Z,3.10
2022-10-06T01:45:41.303Z,1.50
2022-10-06T01:46:41.352Z,3.20
2022-10-06T01:47:41.275Z,3.20
2022-10-06T01:48:41.283Z,5.90
2022-10-06T01:49:41.274Z,2.90
2022-10-06T01:50:41.255Z,2.60
2022-10-06T01:51:41.253Z,4.20
2022-10-06T01:52:41.233Z,3.60
2022-10-06T01:53:41.223Z,3.90
2022-10-06T01:54:41.214Z,1.10
2022-10-06T01:55:41.196Z,1.40
2022-10-06T01:56:41.198Z,3.00
2022-10-06T01:57:41.169Z,0.80
2022-10-06T01:58:41.168Z,3.10
2022-10-06T01:59:41.169Z,1.60
2022-10-06T02:00:41.151Z,1.90
2022-10-06T02:01:41.167Z,1.60
2022-10-06T02:02:41.130Z,2.00
2022-10-06T02:03:41.110Z,2.10
2022-10-06T02:04:41.102Z,1.30
2022-10-06T02:05:41.089Z,9.10
2022-10-06T02:06:41.142Z,1.20
2022-10-06T02:07:41.061Z,3.10
2022-10-06T02:08:41.066Z,2.10
2022-10-06T02:09:41.043Z,3.20
2022-10-06T02:10:41.041Z,5.70
2022-10-06T02:11:41.034Z,1.90
2022-10-06T02:12:41.015Z,2.00
2022-10-06T02:13:41.004Z,2.80
2022-10-06T02:14:40.994Z,3.20
2022-10-06T02:15:41.017Z,3.70
2022-10-06T02:16:40.987Z,9.20
2022-10-06T02:17:40.966Z,2.30
2022-10-06T02:18:40.955Z,2.70
2022-10-06T02:19:40.936Z,4.90
2022-10-06T02:20:40.928Z,4.00
2022-10-06T02:21:40.927Z,5.00
2022-10-06T02:22:40.909Z,4.00
2022-10-06T02:23:40.888Z,6.20
2022-10-06T02:24:40.889Z,4.50
2022-10-06T02:25:40.879Z,5.60
2022-10-06T02:26:40.889Z,7.50
2022-10-06T02:27:40.854Z,8.50
2022-10-06T02:28:40.914Z,6.60
2022-10-06T02:29:40.830Z,8.60
2022-10-06T02:30:40.821Z,3.40
2022-10-06T02:31:40.861Z,5.00
2022-10-06T02:32:40.801Z,7.80
2022-10-06T02:33:40.782Z,6.70
2022-10-06T02:34:40.772Z,5.00
2022-10-06T02:35:40.763Z,5.60
2022-10-06T02:36:40.772Z,6.90
2022-10-06T02:37:40.744Z,8.70
2022-10-06T02:38:40.741Z,8.10
2022-10-06T02:39:40.723Z,8.20
2022-10-06T02:40:40.716Z,5.60
2022-10-06T02:41:40.713Z,6.00
2022-10-06T02:42:40.695Z,8.60
2022-10-06T02:43:40.693Z,8.60
2022-10-06T02:44:40.677Z,9.90
2022-10-06T02:45:40.666Z,9.00
2022-10-06T02:46:40.719Z,5.00
2022-10-06T02:47:40.637Z,9.00
2022-10-06T02:48:40.636Z,3.80
2022-10-06T02:49:40.616Z,9.70
2022-10-06T02:50:40.609Z,11.00
2022-10-06T02:51:40.629Z,9.20
2022-10-06T02:52:40.588Z,6.60
2022-10-06T02:53:40.578Z,5.60
2022-10-06T02:54:40.579Z,10.20
2022-10-06T02:55:40.558Z,9.20
2022-10-06T02:56:40.561Z,9.20
2022-10-06T02:57:40.567Z,10.80
2022-10-06T02:58:40.538Z,9.80
2022-10-06T02:59:40.536Z,8.60
2022-10-06T03:00:40.502Z,9.60
2022-10-06T03:01:40.595Z,11.50
2022-10-06T03:02:40.573Z,9.10
2022-10-06T03:03:40.483Z,12.50
2022-10-06T03:04:40.472Z,8.80
2022-10-06T03:05:40.453Z,15.80
2022-10-06T03:06:40.464Z,11.70
2022-10-06T03:07:40.433Z,11.20
2022-10-06T03:08:40.426Z,13.80
2022-10-06T03:09:40.414Z,13.10
2022-10-06T03:10:40.405Z,9.40
2022-10-06T03:11:40.406Z,11.60
2022-10-06T03:12:40.387Z,17.40
2022-10-06T03:13:40.368Z,18.10
2022-10-06T03:14:40.366Z,10.30
2022-10-06T03:15:40.351Z,16.60
2022-10-06T03:16:40.357Z,13.70
2022-10-06T03:17:40.327Z,17.60
2022-10-06T03:18:40.318Z,15.60
2022-10-06T03:19:40.309Z,11.40
2022-10-06T03:20:40.301Z,15.30
2022-10-06T03:21:40.311Z,13.20
2022-10-06T03:22:40.323Z,17.30
2022-10-06T03:23:40.260Z,17.40
2022-10-06T03:24:40.263Z,13.50
2022-10-06T03:25:40.249Z,14.90
2022-10-06T03:26:40.252Z,15.10
2022-10-06T03:27:40.231Z,15.60
2022-10-06T03:28:40.378Z,18.60
2022-10-06T03:29:40.202Z,15.20
2022-10-06T03:30:40.192Z,15.30
2022-10-06T03:31:40.317Z,15.30
2022-10-06T03:32:40.172Z,15.30
2022-10-06T03:33:40.163Z,18.30
2022-10-06T03:34:40.153Z,21.20
2022-10-06T03:35:40.143Z,22.40
2022-10-06T03:36:40.144Z,13.50
2022-10-06T03:37:40.114Z,16.90
2022-10-06T03:38:40.114Z,19.60
2022-10-06T03:39:40.096Z,18.00
2022-10-06T03:40:40.086Z,20.80
2022-10-06T03:41:40.088Z,18.00
2022-10-06T03:42:40.068Z,19.00
2022-10-06T03:43:40.047Z,18.90
2022-10-06T03:44:40.048Z,15.80
2022-10-06T03:45:40.028Z,16.90
2022-10-06T03:46:40.085Z,16.90
2022-10-06T03:47:40.009Z,16.70
2022-10-06T03:48:40.010Z,20.40
2022-10-06T03:49:40.000Z,19.50
2022-10-06T03:50:39.990Z,17.90
2022-10-06T03:51:39.988Z,22.30
2022-10-06T03:52:39.960Z,14.40
2022-10-06T03:53:39.958Z,20.40
2022-10-06T03:54:39.941Z,20.30
2022-10-06T03:55:39.961Z,14.50
2022-10-06T03:56:39.932Z,19.70
2022-10-06T03:57:39.903Z,20.20
2022-10-06T03:58:39.915Z,20.20
2022-10-06T03:59:39.882Z,25.20
2022-10-06T04:00:39.891Z,16.00
2022-10-06T04:01:39.945Z,17.30
2022-10-06T04:02:39.853Z,19.50
2022-10-06T04:03:39.845Z,17.00
2022-10-06T04:04:39.834Z,17.80
2022-10-06T04:05:39.822Z,20.40
2022-10-06T04:06:39.826Z,18.40
2022-10-06T04:07:39.810Z,25.30
2022-10-06T04:08:39.797Z,20.60
2022-10-06T04:09:39.776Z,20.40
2022-10-06T04:10:39.774Z,16.90
2022-10-06T04:11:39.766Z,17.90
2022-10-06T04:12:39.758Z,17.70
2022-10-06T04:13:39.737Z,17.90
2022-10-06T04:14:39.748Z,17.00
2022-10-06T04:15:39.717Z,18.90
2022-10-06T04:16:39.778Z,17.40
2022-10-06T04:17:39.698Z,22.10
2022-10-06T04:18:39.681Z,14.50
2022-10-06T04:19:39.669Z,18.60
2022-10-06T04:20:39.660Z,21.80
2022-10-06T04:21:39.672Z,16.70
2022-10-06T04:22:39.649Z,17.80
2022-10-06T04:23:39.634Z,16.80
2022-10-06T04:24:39.626Z,19.10
2022-10-06T04:25:39.603Z,17.40
2022-10-06T04:26:39.611Z,21.00
2022-10-06T04:27:39.582Z,17.90
2022-10-06T04:28:39.639Z,21.80
2022-10-06T04:29:39.564Z,18.60
2022-10-06T04:30:39.562Z,16.60
2022-10-06T04:31:39.602Z,14.80
2022-10-06T04:32:39.538Z,19.70
2022-10-06T04:33:39.605Z,23.20
2022-10-06T04:34:39.523Z,16.00
2022-10-06T04:35:39.497Z,26.00
2022-10-06T04:36:39.509Z,21.20
2022-10-06T04:37:39.484Z,15.80
2022-10-06T04:38:39.477Z,19.70
2022-10-06T04:39:39.457Z,24.70
2022-10-06T04:40:39.457Z,21.90
2022-10-06T04:41:39.448Z,20.40
2022-10-06T04:42:39.427Z,22.30
2022-10-06T04:43:39.417Z,26.90
2022-10-06T04:44:39.409Z,27.50
2022-10-06T04:45:39.417Z,28.50
2022-10-06T04:46:44.170Z,21.70
2022-10-06T04:47:40.370Z,17.30
2022-10-06T04:48:39.370Z,25.40
2022-10-06T04:49:39.349Z,18.50
2022-10-06T04:50:39.341Z,22.30
2022-10-06T04:51:39.352Z,21.50
2022-10-06T04:52:39.331Z,18.40
2022-10-06T04:53:39.329Z,21.20
2022-10-06T04:54:39.304Z,18.40
2022-10-06T04:55:39.292Z,23.90
2022-10-06T04:56:39.302Z,24.30
2022-10-06T04:57:39.275Z,20.70
2022-10-06T04:58:39.263Z,19.70
2022-10-06T04:59:39.254Z,24.90
2022-10-06T05:00:39.289Z,21.70
2022-10-06T05:01:39.258Z,22.80
2022-10-06T05:02:39.329Z,19.70
2022-10-06T05:03:39.214Z,22.30
2022-10-06T05:04:39.196Z,22.00
2022-10-06T05:05:39.190Z,21.90
2022-10-06T05:06:39.195Z,20.60
2022-10-06T05:07:39.129Z,21.60
2022-10-06T05:08:39.158Z,24.20
2022-10-06T05:09:39.145Z,18.40
2022-10-06T05:10:39.138Z,19.50
2022-10-06T05:11:39.137Z,19.30
2022-10-06T05:12:39.117Z,23.10
2022-10-06T05:13:39.069Z,16.90
2022-10-06T05:14:39.089Z,24.30
2022-10-06T05:15:39.079Z,24.10
2022-10-06T05:16:39.173Z,25.80
2022-10-06T05:17:39.020Z,23.80
2022-10-06T05:18:38.992Z,23.80
2022-10-06T05:19:38.993Z,22.80
2022-10-06T05:20:38.982Z,23.60
2022-10-06T05:21:38.981Z,21.10
2022-10-06T05:22:38.951Z,21.60
2022-10-06T05:23:38.941Z,24.80
2022-10-06T05:24:38.934Z,19.80
2022-10-06T05:25:38.932Z,20.20
2022-10-06T05:26:38.931Z,22.80
2022-10-06T05:27:38.908Z,25.80
2022-10-06T05:28:38.910Z,27.00
2022-10-06T05:29:38.889Z,22.90
2022-10-06T05:30:38.882Z,23.60
2022-10-06T05:31:39.132Z,25.20
2022-10-06T05:32:38.850Z,27.40
2022-10-06T05:33:38.845Z,22.70
2022-10-06T05:34:38.824Z,20.80
2022-10-06T05:35:38.818Z,26.30
2022-10-06T05:36:38.815Z,18.40
2022-10-06T05:37:38.802Z,19.20
2022-10-06T05:38:38.777Z,22.10
2022-10-06T05:39:38.779Z,21.00
2022-10-06T05:40:38.769Z,22.00
2022-10-06T05:41:38.770Z,22.40
2022-10-06T05:42:38.738Z,16.90
2022-10-06T05:43:38.737Z,26.60
2022-10-06T05:44:38.720Z,29.50
2022-10-06T05:45:38.761Z,22.00
2022-10-06T05:46:38.710Z,18.60
2022-10-06T05:47:38.690Z,20.20
2022-10-06T05:48:38.681Z,15.70
2022-10-06T05:49:38.672Z,22.70
2022-10-06T05:50:38.661Z,20.30
2022-10-06T05:51:38.665Z,19.80
2022-10-06T05:52:38.631Z,17.40
2022-10-06T05:53:38.622Z,19.80
2022-10-06T05:54:38.612Z,18.90
2022-10-06T05:55:38.604Z,21.10
2022-10-06T05:56:38.606Z,25.50
2022-10-06T05:57:38.603Z,23.10
2022-10-06T05:58:38.573Z,18.90
2022-10-06T05:59:38.564Z,23.30
2022-10-06T06:00:38.553Z,19.90
2022-10-06T06:01:38.581Z,18.50
2022-10-06T06:02:38.607Z,19.40
2022-10-06T06:03:38.525Z,17.00
2022-10-06T06:04:38.505Z,19.80
2022-10-06T06:05:38.497Z,20.90
2022-10-06T06:06:38.497Z,21.50
2022-10-06T06:07:38.487Z,21.10
2022-10-06T06:08:38.467Z,26.80
2022-10-06T06:09:38.456Z,17.60
2022-10-06T06:10:38.441Z,21.40
2022-10-06T06:11:38.448Z,19.60
2022-10-06T06:12:38.419Z,18.20
2022-10-06T06:13:38.419Z,19.20
2022-10-06T06:14:38.399Z,18.10
2022-10-06T06:15:38.399Z,22.10
2022-10-06T06:16:38.409Z,24.30
2022-10-06T06:17:38.383Z,21.20
2022-10-06T06:18:38.360Z,28.90
2022-10-06T06:19:38.356Z,30.60
2022-10-06T06:20:38.341Z,25.40
2022-10-06T06:21:38.355Z,23.70
2022-10-06T06:22:38.312Z,22.70
2022-10-06T06:23:38.321Z,25.00
2022-10-06T06:24:38.292Z,21.20
2022-10-06T06:25:38.325Z,27.50
2022-10-06T06:26:38.292Z,30.90
2022-10-06T06:27:38.264Z,28.40
2022-10-06T06:28:38.301Z,27.80
2022-10-06T06:29:38.245Z,21.80
2022-10-06T06:30:38.235Z,22.90
2022-10-06T06:31:38.318Z,23.30
2022-10-06T06:32:38.234Z,18.60
2022-10-06T06:33:38.208Z,22.70
2022-10-06T06:34:38.187Z,20.50
2022-10-06T06:35:38.188Z,22.70
2022-10-06T06:36:38.188Z,23.20
2022-10-06T06:37:38.157Z,24.20
2022-10-06T06:38:38.146Z,24.70
2022-10-06T06:39:38.140Z,18.80
2022-10-06T06:40:38.127Z,18.40
2022-10-06T06:41:38.158Z,25.40
2022-10-06T06:42:38.114Z,21.10
2022-10-06T06:43:38.106Z,19.50
2022-10-06T06:44:38.089Z,16.90
2022-10-06T06:45:38.117Z,25.70
2022-10-06T06:46:38.071Z,18.40
2022-10-06T06:47:38.057Z,24.10
2022-10-06T06:48:38.050Z,20.90
2022-10-06T06:49:38.040Z,19.10
2022-10-06T06:50:38.020Z,25.00
2022-10-06T06:51:38.021Z,21.40
2022-10-06T06:52:38.015Z,20.10
2022-10-06T06:53:37.992Z,22.20
2022-10-06T06:54:37.981Z,24.80
2022-10-06T06:55:37.972Z,18.40
2022-10-06T06:56:37.972Z,23.70
2022-10-06T06:57:37.958Z,27.30
2022-10-06T06:58:37.934Z,21.50
2022-10-06T06:59:37.935Z,24.40
2022-10-06T07:00:37.914Z,17.80
2022-10-06T07:01:38.025Z,23.20
2022-10-06T07:02:37.894Z,22.60
2022-10-06T07:03:56.683Z,26.30
2022-10-06T07:04:38.878Z,29.70
2022-10-06T07:05:37.866Z,23.00
2022-10-06T07:06:37.866Z,27.90
2022-10-06T07:07:37.847Z,25.70
2022-10-06T07:08:37.853Z,29.70
2022-10-06T07:09:37.817Z,26.20
2022-10-06T07:10:37.817Z,24.40
2022-10-06T07:11:37.824Z,24.90
2022-10-06T07:12:37.788Z,25.80
2022-10-06T07:13:37.778Z,24.60
2022-10-06T07:14:37.768Z,20.70
2022-10-06T07:15:37.782Z,25.30
2022-10-06T07:16:37.759Z,31.70
2022-10-06T07:17:37.740Z,23.80
2022-10-06T07:18:37.720Z,27.40
2022-10-06T07:19:37.719Z,27.10
2022-10-06T07:20:37.700Z,26.10
2022-10-06T07:21:37.708Z,27.00
2022-10-06T07:22:37.682Z,23.00
2022-10-06T07:23:37.672Z,25.50
2022-10-06T07:24:37.662Z,25.80
2022-10-06T07:25:37.652Z,22.30
2022-10-06T07:26:37.653Z,26.10
2022-10-06T07:27:37.641Z,22.60
2022-10-06T07:28:37.642Z,26.30
2022-10-06T07:29:37.614Z,19.70
2022-10-06T07:30:40.713Z,25.60
2022-10-06T07:31:37.677Z,30.10
2022-10-06T07:32:37.584Z,29.00
2022-10-06T07:33:37.577Z,24.90
2022-10-06T07:34:37.594Z,22.10
2022-10-06T07:35:37.546Z,18.70
2022-10-06T07:36:37.647Z,26.50
2022-10-06T07:37:37.528Z,19.90
2022-10-06T07:38:37.517Z,26.50
2022-10-06T07:39:37.507Z,25.10
2022-10-06T07:40:40.244Z,22.50
2022-10-06T07:41:38.499Z,27.10
2022-10-06T07:42:37.469Z,25.10
2022-10-06T07:43:37.461Z,19.80
2022-10-06T07:44:37.448Z,20.40
2022-10-06T07:45:37.510Z,26.50
2022-10-06T07:46:37.419Z,26.80
2022-10-06T07:47:37.450Z,24.70
2022-10-06T07:48:37.409Z,26.50
2022-10-06T07:49:37.399Z,17.50
2022-10-06T07:50:37.392Z,27.70
2022-10-06T07:51:37.373Z,24.70
2022-10-06T07:52:37.375Z,25.80
2022-10-06T07:53:37.352Z,26.90
2022-10-06T07:54:37.342Z,21.30
2022-10-06T07:55:37.332Z,29.50
2022-10-06T07:56:37.324Z,26.40
2022-10-06T07:57:37.336Z,23.50
2022-10-06T07:58:37.295Z,21.00
2022-10-06T07:59:37.295Z,25.40
2022-10-06T08:00:37.281Z,28.00
2022-10-06T08:01:37.288Z,28.40
2022-10-06T08:02:37.291Z,19.50
2022-10-06T08:03:37.247Z,24.40
2022-10-06T08:04:37.239Z,24.90
2022-10-06T08:05:37.237Z,26.30
2022-10-06T08:06:37.215Z,24.20
2022-10-06T08:07:37.226Z,19.40
2022-10-06T08:08:37.197Z,24.20
2022-10-06T08:09:37.199Z,19.40
2022-10-06T08:10:37.168Z,19.50
2022-10-06T08:11:37.159Z,19.10
2022-10-06T08:12:37.236Z,23.70
2022-10-06T08:13:37.140Z,25.70
2022-10-06T08:14:37.131Z,21.20
2022-10-06T08:15:37.120Z,27.10
2022-10-06T08:16:37.180Z,33.40
2022-10-06T08:17:37.115Z,23.00
2022-10-06T08:18:52.306Z,22.10
2022-10-06T08:19:38.072Z,22.60
2022-10-06T08:20:37.107Z,18.00
2022-10-06T08:21:37.060Z,19.50
2022-10-06T08:22:37.052Z,24.90
2022-10-06T08:23:37.042Z,23.80
2022-10-06T08:25:01.087Z,21.60
2022-10-06T08:25:38.014Z,31.10
2022-10-06T08:26:37.004Z,27.50
2022-10-06T08:27:37.007Z,25.50
2022-10-06T08:28:37.026Z,28.50
2022-10-06T08:29:36.975Z,24.90
2022-10-06T08:30:36.964Z,20.40
2022-10-06T08:31:37.043Z,22.40
2022-10-06T08:32:36.956Z,20.10
2022-10-06T08:33:36.938Z,23.00
2022-10-06T08:34:36.992Z,22.30
2022-10-06T08:35:36.911Z,25.20
2022-10-06T08:36:36.899Z,22.40
2022-10-06T08:37:36.910Z,23.70
2022-10-06T08:38:36.877Z,21.50
2022-10-06T08:39:36.868Z,24.00
2022-10-06T08:40:36.858Z,20.90
2022-10-06T08:41:36.918Z,19.20
2022-10-06T08:42:36.859Z,21.10
2022-10-06T08:43:36.839Z,22.70
2022-10-06T08:44:36.829Z,30.30
2022-10-06T08:45:38.831Z,19.20
2022-10-06T08:46:36.793Z,15.90
2022-10-06T08:47:36.802Z,20.00
2022-10-06T08:48:36.787Z,20.20
2022-10-06T08:49:36.776Z,27.20
2022-10-06T08:50:36.751Z,18.50
2022-10-06T08:51:36.752Z,21.90
2022-10-06T08:52:36.745Z,20.10
2022-10-06T08:53:36.723Z,20.30
2022-10-06T08:54:36.713Z,25.60
2022-10-06T08:55:36.704Z,18.20
2022-10-06T08:56:36.684Z,21.30
2022-10-06T08:57:36.697Z,23.00
2022-10-06T08:58:36.665Z,19.30
2022-10-06T08:59:36.670Z,18.20
2022-10-06T09:00:36.648Z,20.00
2022-10-06T09:01:36.773Z,17.70
2022-10-06T09:02:36.677Z,18.70
2022-10-06T09:03:36.616Z,21.80
2022-10-06T09:04:36.597Z,19.40
2022-10-06T09:05:36.597Z,22.90
2022-10-06T09:06:36.597Z,21.50
2022-10-06T09:07:36.576Z,18.90
2022-10-06T09:08:36.559Z,19.80
2022-10-06T09:09:36.559Z,22.50
2022-10-06T09:10:36.548Z,19.90
2022-10-06T09:11:36.538Z,20.10
2022-10-06T09:12:36.534Z,15.00
2022-10-06T09:13:36.511Z,19.60
2022-10-06T09:14:36.491Z,18.30
2022-10-06T09:15:36.493Z,19.20
2022-10-06T09:16:36.471Z,23.00
2022-10-06T09:17:36.482Z,20.50
2022-10-06T09:19:03.495Z,21.80
2022-10-06T09:19:37.446Z,16.50
2022-10-06T09:20:36.578Z,20.30
2022-10-06T09:21:36.424Z,20.80
2022-10-06T09:22:36.430Z,23.50
2022-10-06T09:23:36.406Z,21.90
2022-10-06T09:24:36.453Z,20.80
2022-10-06T09:25:36.377Z,20.20
2022-10-06T09:26:36.365Z,14.80
2022-10-06T09:27:36.402Z,18.20
2022-10-06T09:28:36.402Z,21.20
2022-10-06T09:29:36.337Z,18.10
2022-10-06T09:30:36.316Z,22.10
2022-10-06T09:31:36.416Z,23.20
2022-10-06T09:32:36.319Z,16.50
2022-10-06T09:33:36.288Z,18.30
2022-10-06T09:34:36.277Z,20.60
2022-10-06T09:35:36.270Z,18.60
2022-10-06T09:36:36.260Z,19.40
2022-10-06T09:37:36.270Z,15.40
2022-10-06T09:38:36.240Z,25.70
2022-10-06T09:39:36.230Z,21.80
2022-10-06T09:40:36.224Z,19.20
2022-10-06T09:41:36.201Z,21.00
2022-10-06T09:42:36.209Z,18.70
2022-10-06T09:43:36.182Z,23.20
2022-10-06T09:44:36.173Z,20.20
2022-10-06T09:45:36.162Z,18.60
2022-10-06T09:46:36.165Z,18.70
2022-10-06T09:47:36.153Z,17.50
2022-10-06T09:48:36.134Z,21.30
2022-10-06T09:49:36.113Z,17.00
2022-10-06T09:50:36.113Z,18.10
2022-10-06T09:51:36.094Z,16.20
2022-10-06T09:52:36.097Z,19.40
2022-10-06T09:53:37.771Z,18.60
2022-10-06T09:54:36.097Z,20.30
2022-10-06T09:55:36.059Z,23.30
2022-10-06T09:56:36.045Z,20.50
2022-10-06T09:57:36.048Z,21.80
2022-10-06T09:58:36.017Z,20.70
2022-10-06T09:59:40.004Z,17.70
2022-10-06T10:00:36.135Z,20.30
2022-10-06T10:01:35.988Z,21.60
2022-10-06T10:02:36.043Z,21.00
2022-10-06T10:03:35.961Z,15.90
2022-10-06T10:04:35.961Z,26.20
2022-10-06T10:05:35.945Z,21.90
2022-10-06T10:06:35.934Z,17.50
2022-10-06T10:07:35.930Z,15.90
2022-10-06T10:08:35.954Z,16.60
2022-10-06T10:09:35.903Z,23.30
2022-10-06T10:10:35.891Z,16.10
2022-10-06T10:11:35.884Z,30.30
2022-10-06T10:12:35.892Z,22.10
2022-10-06T10:13:35.874Z,19.60
2022-10-06T10:14:35.854Z,19.20
2022-10-06T10:15:35.835Z,17.80
2022-10-06T10:16:35.883Z,13.50
2022-10-06T10:17:35.836Z,17.60
2022-10-06T10:18:35.816Z,22.70
2022-10-06T10:19:35.795Z,15.10
2022-10-06T10:20:35.786Z,18.30
2022-10-06T10:21:35.779Z,13.20
2022-10-06T10:22:35.778Z,15.80
2022-10-06T10:23:35.747Z,20.90
2022-10-06T10:24:35.749Z,20.60
2022-10-06T10:25:35.729Z,16.80
2022-10-06T10:26:35.719Z,16.10
2022-10-06T10:27:35.719Z,13.90
2022-10-06T10:28:35.734Z,16.10
2022-10-06T10:29:35.701Z,15.40
2022-10-06T10:30:35.681Z,14.10
2022-10-06T10:31:35.739Z,12.50
2022-10-06T10:32:35.682Z,19.30
2022-10-06T10:33:35.642Z,12.80
2022-10-06T10:34:35.642Z,11.90
2022-10-06T10:35:35.624Z,10.10
2022-10-06T10:36:35.632Z,16.30
2022-10-06T10:37:35.622Z,15.00
2022-10-06T10:38:35.595Z,11.30
2022-10-06T10:39:35.584Z,16.10
2022-10-06T10:40:35.578Z,11.10
2022-10-06T10:41:35.575Z,12.10
2022-10-06T10:42:35.574Z,14.70
2022-10-06T10:43:35.536Z,17.90
2022-10-06T10:44:35.648Z,18.50
2022-10-06T10:45:35.530Z,13.70
2022-10-06T10:46:35.553Z,13.70
2022-10-06T10:47:35.508Z,15.00
2022-10-06T10:48:35.499Z,14.10
2022-10-06T10:49:35.480Z,14.40
2022-10-06T10:50:35.490Z,11.10
2022-10-06T10:51:35.460Z,14.10
2022-10-06T10:52:35.474Z,12.50
2022-10-06T10:53:37.618Z,16.00
2022-10-06T10:54:35.440Z,11.20
2022-10-06T10:55:35.424Z,14.50
2022-10-06T10:56:35.415Z,17.70
2022-10-06T10:57:35.413Z,11.20
2022-10-06T10:58:35.393Z,17.50
2022-10-06T10:59:35.374Z,15.50
2022-10-06T11:00:35.481Z,13.20
2022-10-06T11:01:35.413Z,13.20
2022-10-06T11:02:35.365Z,11.70
2022-10-06T11:03:35.336Z,14.90
2022-10-06T11:04:35.334Z,12.50
2022-10-06T11:05:35.317Z,16.90
2022-10-06T11:06:35.308Z,14.60
2022-10-06T11:07:35.311Z,14.40
2022-10-06T11:08:35.288Z,13.10
2022-10-06T11:09:35.278Z,13.80
2022-10-06T11:10:35.272Z,13.40
2022-10-06T11:11:35.254Z,11.60
2022-10-06T11:12:35.261Z,8.60
2022-10-06T11:13:35.230Z,14.60
2022-10-06T11:14:35.233Z,13.40
2022-10-06T11:15:35.216Z,9.80
2022-10-06T11:16:35.247Z,11.10
2022-10-06T11:17:35.204Z,15.40
2022-10-06T11:18:35.184Z,12.20
2022-10-06T11:19:35.172Z,13.30
2022-10-06T11:20:35.163Z,11.60
2022-10-06T11:21:35.154Z,14.10
2022-10-06T11:22:35.156Z,10.80
2022-10-06T11:23:35.125Z,12.60
2022-10-06T11:24:35.138Z,12.60
2022-10-06T11:25:35.398Z,12.00
2022-10-06T11:26:35.112Z,10.30
2022-10-06T11:27:35.110Z,13.70
2022-10-06T11:28:35.102Z,15.10
2022-10-06T11:29:35.075Z,13.30
2022-10-06T11:30:35.067Z,8.50
2022-10-06T11:31:35.096Z,11.80
2022-10-06T11:32:35.109Z,13.10
2022-10-06T11:33:35.031Z,12.50
2022-10-06T11:34:35.022Z,10.80
2022-10-06T11:35:35.009Z,12.00
2022-10-06T11:36:35.035Z,12.30
2022-10-06T11:37:35.002Z,11.90
2022-10-06T11:38:34.987Z,16.60
2022-10-06T11:39:34.972Z,13.50
2022-10-06T11:40:34.964Z,12.30
2022-10-06T11:41:34.946Z,14.40
2022-10-06T11:42:34.956Z,11.70
2022-10-06T11:43:34.926Z,10.60
2022-10-06T11:44:34.927Z,13.50
2022-10-06T11:45:34.966Z,13.90
2022-10-06T11:46:35.783Z,11.40
2022-10-06T11:47:36.240Z,10.60
2022-10-06T11:48:34.898Z,11.90
2022-10-06T11:49:34.868Z,11.90
2022-10-06T11:50:34.859Z,14.30
2022-10-06T11:51:34.850Z,10.10
2022-10-06T11:52:34.859Z,12.50
2022-10-06T11:53:34.834Z,10.50
2022-10-06T11:54:34.829Z,12.30
2022-10-06T11:55:34.812Z,12.30
2022-10-06T11:56:34.804Z,11.60
2022-10-06T11:57:34.800Z,12.60
2022-10-06T11:58:42.258Z,9.90
2022-10-06T11:59:35.765Z,11.40
2022-10-06T12:00:34.775Z,11.80
2022-10-06T12:01:34.879Z,10.60
2022-10-06T12:02:34.872Z,10.40
2022-10-06T12:03:34.746Z,9.80
2022-10-06T12:04:34.719Z,10.60
2022-10-06T12:05:55.856Z,12.30
2022-10-06T12:06:35.698Z,10.60
2022-10-06T12:07:34.697Z,13.70
2022-10-06T12:08:34.679Z,9.50
2022-10-06T12:09:34.666Z,13.60
2022-10-06T12:10:34.705Z,13.90
2022-10-06T12:11:34.648Z,11.80
2022-10-06T12:12:34.650Z,14.00
2022-10-06T12:17:35.593Z,13.00
2022-10-06T12:18:34.573Z,16.40
2022-10-06T12:19:34.563Z,16.30
2022-10-06T12:20:34.553Z,11.30
2022-10-06T12:21:34.544Z,13.30
2022-10-06T12:22:34.555Z,11.20
2022-10-06T12:23:34.537Z,15.70
2022-10-06T12:24:34.516Z,17.40
2022-10-06T12:25:34.506Z,21.80
2022-10-06T12:26:34.496Z,15.80
2022-10-06T12:27:34.500Z,15.40
2022-10-06T12:28:34.538Z,14.10
2022-10-06T12:29:34.459Z,13.40
2022-10-06T12:30:34.492Z,11.80
2022-10-06T12:31:34.459Z,20.30
2022-10-06T12:32:34.449Z,15.40
2022-10-06T12:33:34.419Z,12.30
2022-10-06T12:34:34.410Z,17.30
2022-10-06T12:35:34.401Z,12.20
2022-10-06T12:36:34.392Z,24.60
2022-10-06T12:37:34.402Z,18.60
2022-10-06T12:38:34.384Z,25.10
2022-10-06T12:39:34.362Z,17.30
2022-10-06T12:40:34.357Z,14.60
2022-10-06T12:41:34.335Z,20.40
2022-10-06T12:42:34.347Z,13.20
2022-10-06T12:43:34.315Z,17.00
2022-10-06T12:44:34.306Z,16.80
2022-10-06T12:45:34.296Z,13.00
2022-10-06T12:46:34.325Z,15.30
2022-10-06T12:47:34.288Z,14.70
2022-10-06T12:48:34.278Z,13.60
2022-10-06T12:49:34.266Z,14.10
2022-10-06T12:50:34.255Z,16.30
2022-10-06T12:51:34.339Z,18.50
2022-10-06T12:52:34.249Z,12.60
2022-10-06T12:53:34.209Z,18.40
2022-10-06T12:54:34.210Z,11.30
2022-10-06T12:55:34.191Z,22.40
2022-10-06T12:56:35.050Z,13.10
2022-10-06T12:57:34.181Z,14.60
2022-10-06T12:58:34.162Z,15.90
2022-10-06T12:59:34.151Z,13.50
2022-10-06T13:00:34.148Z,16.60
2022-10-06T13:01:34.150Z,13.90